createdAt,value
2022-09-03T00:00:58.639Z,100943.66
2022-09-03T00:02:27.739Z,100940.13
2022-09-03T00:03:32.277Z,100937.28
2022-09-03T00:04:43.966Z,100935.56
2022-09-03T00:05:56.973Z,100938.16
2022-09-03T00:07:03.822Z,100940.81
2022-09-03T00:08:10.133Z,100937.28
2022-09-03T00:09:25.748Z,100939.09
2022-09-03T00:10:29.490Z,100940.81
2022-09-03T00:11:34.882Z,100939.16
2022-09-03T00:12:37.669Z,100948.09
2022-09-03T00:14:00.325Z,100948.25
2022-09-03T00:15:10.143Z,100946.66
2022-09-03T00:16:16.155Z,100946.66
2022-09-03T00:17:22.670Z,100943.06
2022-09-03T00:18:30.087Z,100940.41
2022-09-03T00:19:32.901Z,100943.22
2022-09-03T00:20:40.218Z,100942.34
2022-09-03T00:21:44.766Z,100948.53
2022-09-03T00:22:53.102Z,100941.47
2022-09-03T00:23:54.972Z,100942.50
2022-09-03T00:25:01.184Z,100940.78
2022-09-03T00:26:14.951Z,100931.00
2022-09-03T00:27:19.517Z,100936.31
2022-09-03T00:28:26.859Z,100936.31
2022-09-03T00:29:29.778Z,100940.84
2022-09-03T00:30:34.173Z,100934.75
2022-09-03T00:31:37.648Z,100935.66
2022-09-03T00:32:42.074Z,100924.53
2022-09-03T00:33:44.603Z,100927.69
2022-09-03T00:34:50.984Z,100935.75
2022-09-03T00:36:02.166Z,100927.81
2022-09-03T00:37:07.300Z,100926.09
2022-09-03T00:38:19.039Z,100936.69
2022-09-03T00:39:22.581Z,100933.16
2022-09-03T00:40:45.396Z,100935.06
2022-09-03T00:41:57.349Z,100929.56
2022-09-03T00:43:02.979Z,100923.38
2022-09-03T00:44:22.576Z,100922.50
2022-09-03T00:45:34.018Z,100929.56
2022-09-03T00:46:42.051Z,100937.53
2022-09-03T00:47:46.554Z,100924.22
2022-09-03T00:48:55.991Z,100928.75
2022-09-03T00:50:04.596Z,100935.81
2022-09-03T00:51:27.982Z,100927.81
2022-09-03T00:52:35.259Z,100936.84
2022-09-03T00:53:42.651Z,100938.66
2022-09-03T00:55:13.842Z,100935.13
2022-09-03T00:56:24.750Z,100943.25
2022-09-03T00:57:47.348Z,100948.63
2022-09-03T00:59:01.731Z,100939.66
2022-09-03T01:00:03.695Z,100944.25
2022-09-03T01:01:11.974Z,100942.53
2022-09-03T01:02:18.091Z,100941.59
2022-09-03T01:03:31.563Z,100954.91
2022-09-03T01:04:36.027Z,100938.91
2022-09-03T01:05:51.753Z,100946.91
2022-09-03T01:06:59.027Z,100949.56
2022-09-03T01:08:09.326Z,100955.03
2022-09-03T01:09:48.265Z,100948.16
2022-09-03T01:10:56.814Z,100952.53
2022-09-03T01:12:01.907Z,100952.53
2022-09-03T01:13:06.690Z,100958.78
2022-09-03T01:14:18.615Z,100952.69
2022-09-03T01:15:41.752Z,100949.16
2022-09-03T01:16:49.813Z,100950.16
2022-09-03T01:17:54.142Z,100950.28
2022-09-03T01:19:02.581Z,100943.25
2022-09-03T01:20:25.582Z,100941.59
2022-09-03T01:21:27.347Z,100939.09
2022-09-03T01:22:41.095Z,100935.69
2022-09-03T01:24:01.390Z,100940.22
2022-09-03T01:25:10.886Z,100944.13
2022-09-03T01:26:31.895Z,100944.13
2022-09-03T01:27:33.637Z,100938.06
2022-09-03T01:28:47.171Z,100936.34
2022-09-03T01:29:55.670Z,100948.00
2022-09-03T01:31:02.025Z,100934.84
2022-09-03T01:32:07.879Z,100931.38
2022-09-03T01:33:14.926Z,100934.97
2022-09-03T01:34:34.670Z,100926.19
2022-09-03T01:35:42.112Z,100923.53
2022-09-03T01:36:53.099Z,100934.31
2022-09-03T01:38:04.425Z,100927.34
2022-09-03T01:39:07.082Z,100927.41
2022-09-03T01:40:37.531Z,100925.69
2022-09-03T01:42:01.721Z,100928.34
2022-09-03T01:43:20.975Z,100931.81
2022-09-03T01:44:39.410Z,100923.81
2022-09-03T01:45:52.285Z,100924.81
2022-09-03T01:46:59.230Z,100924.88
2022-09-03T01:48:18.213Z,100924.03
2022-09-03T01:49:22.829Z,100918.78
2022-09-03T01:50:29.926Z,100918.06
2022-09-03T01:51:31.958Z,100912.81
2022-09-03T01:52:45.707Z,100918.13
2022-09-03T01:53:55.042Z,100919.03
2022-09-03T01:55:09.298Z,100915.47
2022-09-03T01:56:18.158Z,100902.47
2022-09-03T01:57:42.030Z,100913.72
2022-09-03T01:58:55.114Z,100908.41
2022-09-03T02:00:02.150Z,100909.25
2022-09-03T02:01:15.386Z,100910.16
2022-09-03T02:02:26.712Z,100910.16
2022-09-03T02:03:36.288Z,100909.31
2022-09-03T02:04:43.547Z,100910.25
2022-09-03T02:05:48.016Z,100906.78
2022-09-03T02:06:50.610Z,100908.53
2022-09-03T02:07:57.847Z,100901.47
2022-09-03T02:08:59.739Z,100903.34
2022-09-03T02:10:05.518Z,100901.63
2022-09-03T02:11:07.474Z,100907.09
2022-09-03T02:12:14.156Z,100901.69
2022-09-03T02:13:19.512Z,100901.63
2022-09-03T02:14:21.302Z,100906.94
2022-09-03T02:15:26.249Z,100899.88
2022-09-03T02:16:29.270Z,100896.28
2022-09-03T02:17:34.702Z,100890.84
2022-09-03T02:18:38.069Z,100889.13
2022-09-03T02:19:42.436Z,100885.53
2022-09-03T02:20:44.243Z,100885.53
2022-09-03T02:21:58.753Z,100886.41
2022-09-03T02:23:00.593Z,100886.47
2022-09-03T02:24:06.342Z,100882.88
2022-09-03T02:25:08.394Z,100879.28
2022-09-03T02:26:13.276Z,100887.19
2022-09-03T02:27:15.050Z,100887.25
2022-09-03T02:28:19.437Z,100890.78
2022-09-03T02:29:21.382Z,100893.44
2022-09-03T02:30:25.770Z,100888.97
2022-09-03T02:31:28.925Z,100895.16
2022-09-03T02:32:33.526Z,100901.34
2022-09-03T02:33:37.106Z,100895.09
2022-09-03T02:34:41.535Z,100892.44
2022-09-03T02:35:43.393Z,100892.44
2022-09-03T02:36:48.829Z,100881.81
2022-09-03T02:37:50.625Z,100889.78
2022-09-03T02:38:55.015Z,100889.78
2022-09-03T02:39:57.815Z,100889.91
2022-09-03T02:41:02.251Z,100889.06
2022-09-03T02:42:04.157Z,100890.66
2022-09-03T02:43:09.249Z,100892.41
2022-09-03T02:44:14.162Z,100896.03
2022-09-03T02:45:24.640Z,100887.13
2022-09-03T02:46:33.369Z,100888.88
2022-09-03T02:47:35.234Z,100891.63
2022-09-03T02:48:39.656Z,100891.72
2022-09-03T02:49:41.542Z,100890.91
2022-09-03T02:50:45.971Z,100888.13
2022-09-03T02:51:47.861Z,100894.31
2022-09-03T02:52:52.277Z,100888.97
2022-09-03T02:53:54.148Z,100901.34
2022-09-03T02:55:06.949Z,100876.81
2022-09-03T02:56:08.826Z,100893.44
2022-09-03T02:57:14.051Z,100901.47
2022-09-03T02:58:16.009Z,100894.44
2022-09-03T02:59:22.822Z,100889.25
2022-09-03T03:00:24.703Z,100896.47
2022-09-03T03:01:29.276Z,100891.13
2022-09-03T03:02:34.536Z,100891.28
2022-09-03T03:03:38.988Z,100898.31
2022-09-03T03:04:40.909Z,100896.59
2022-09-03T03:05:48.155Z,100889.53
2022-09-03T03:06:50.841Z,100894.84
2022-09-03T03:07:56.257Z,100896.66
2022-09-03T03:09:01.759Z,100896.72
2022-09-03T03:10:06.484Z,100892.34
2022-09-03T03:11:08.257Z,100900.38
2022-09-03T03:12:12.712Z,100895.28
2022-09-03T03:13:14.543Z,100896.22
2022-09-03T03:14:19.135Z,100905.19
2022-09-03T03:15:21.035Z,100911.41
2022-09-03T03:16:25.670Z,100909.75
2022-09-03T03:17:27.568Z,100902.88
2022-09-03T03:18:32.409Z,100904.56
2022-09-03T03:19:34.273Z,100908.19
2022-09-03T03:20:38.662Z,100902.00
2022-09-03T03:21:43.046Z,100904.78
2022-09-03T03:22:44.878Z,100904.72
2022-09-03T03:23:49.243Z,100895.94
2022-09-03T03:24:51.126Z,100895.94
2022-09-03T03:25:56.010Z,100902.19
2022-09-03T03:26:58.164Z,100898.59
2022-09-03T03:28:03.424Z,100902.13
2022-09-03T03:29:05.268Z,100902.19
2022-09-03T03:30:10.408Z,100904.84
2022-09-03T03:31:13.452Z,100906.72
2022-09-03T03:32:17.861Z,100903.25
2022-09-03T03:33:19.647Z,100911.16
2022-09-03T03:34:26.357Z,100906.72
2022-09-03T03:35:28.321Z,100902.25
2022-09-03T03:36:34.203Z,100903.13
2022-09-03T03:37:35.973Z,100909.25
2022-09-03T03:38:40.542Z,100910.16
2022-09-03T03:39:44.990Z,100911.09
2022-09-03T03:40:47.070Z,100908.44
2022-09-03T03:41:52.566Z,100903.13
2022-09-03T03:42:54.700Z,100906.72
2022-09-03T03:43:59.537Z,100906.72
2022-09-03T03:45:02.647Z,100908.44
2022-09-03T03:46:07.563Z,100912.03
2022-09-03T03:47:09.490Z,100917.34
2022-09-03T03:48:14.013Z,100913.81
2022-09-03T03:49:15.820Z,100912.16
2022-09-03T03:50:20.997Z,100919.25
2022-09-03T03:51:22.816Z,100917.56
2022-09-03T03:52:27.840Z,100914.03
2022-09-03T03:53:29.611Z,100917.63
2022-09-03T03:54:34.064Z,100909.66
2022-09-03T03:55:36.526Z,100907.06
2022-09-03T03:56:40.921Z,100921.19
2022-09-03T03:57:42.788Z,100915.88
2022-09-03T03:58:48.609Z,100915.03
2022-09-03T03:59:50.795Z,100914.16
2022-09-03T04:00:55.856Z,100915.03
2022-09-03T04:02:00.291Z,100918.59
2022-09-03T04:03:02.202Z,100919.47
2022-09-03T04:04:06.615Z,100914.16
2022-09-03T04:05:08.753Z,100910.56
2022-09-03T04:06:14.848Z,100911.38
2022-09-03T04:07:16.609Z,100911.28
2022-09-03T04:08:21.001Z,100910.34
2022-09-03T04:09:22.852Z,100913.88
2022-09-03T04:10:27.248Z,100913.88
2022-09-03T04:11:29.222Z,100915.47
2022-09-03T04:12:33.609Z,100917.22
2022-09-03T04:13:39.452Z,100920.13
2022-09-03T04:14:43.837Z,100925.69
2022-09-03T04:15:45.807Z,100925.06
2022-09-03T04:16:51.237Z,100930.34
2022-09-03T04:17:55.061Z,100944.84
2022-09-03T04:18:59.634Z,100958.88
2022-09-03T04:20:01.621Z,100967.91
2022-09-03T04:21:07.156Z,100972.56
2022-09-03T04:22:08.927Z,100986.34
2022-09-03T04:23:13.345Z,100995.09
2022-09-03T04:24:17.711Z,101005.81
2022-09-03T04:25:19.610Z,101006.81
2022-09-03T04:26:25.285Z,101011.44
2022-09-03T04:27:27.115Z,101017.34
2022-09-03T04:28:31.500Z,101020.03
2022-09-03T04:29:33.717Z,101017.91
2022-09-03T04:30:38.120Z,101022.25
2022-09-03T04:31:59.927Z,101017.16
2022-09-03T04:33:05.181Z,101021.31
2022-09-03T04:34:07.026Z,101024.56
2022-09-03T04:35:11.587Z,101018.34
2022-09-03T04:36:13.323Z,101022.47
2022-09-03T04:37:19.943Z,101019.31
2022-09-03T04:38:21.726Z,101013.47
2022-09-03T04:39:26.217Z,101011.03
2022-09-03T04:40:28.094Z,101013.84
2022-09-03T04:41:33.166Z,101012.31
2022-09-03T04:42:34.963Z,101007.28
2022-09-03T04:43:40.045Z,101012.00
2022-09-03T04:44:42.077Z,101012.31
2022-09-03T04:45:46.479Z,100996.91
2022-09-03T04:46:48.581Z,101005.75
2022-09-03T04:48:02.639Z,100990.41
2022-09-03T04:49:04.485Z,101009.94
2022-09-03T04:50:09.237Z,101003.22
2022-09-03T04:51:13.429Z,101003.50
2022-09-03T04:52:17.888Z,100991.28
2022-09-03T04:53:19.770Z,100996.63
2022-09-03T04:54:24.245Z,100993.31
2022-09-03T04:55:35.292Z,100991.72
2022-09-03T04:56:39.667Z,100990.78
2022-09-03T04:57:43.136Z,100995.34
2022-09-03T04:58:49.329Z,100986.47
2022-09-03T04:59:52.973Z,100986.41
2022-09-03T05:00:57.641Z,100989.13
2022-09-03T05:01:59.572Z,100987.44
2022-09-03T05:03:05.159Z,100991.19
2022-09-03T05:04:09.919Z,100991.91
2022-09-03T05:05:11.770Z,100995.19
2022-09-03T05:06:17.293Z,100995.03
2022-09-03T05:07:22.126Z,100996.63
2022-09-03T05:08:24.235Z,100997.25
2022-09-03T05:09:28.885Z,101002.34
2022-09-03T05:10:32.123Z,100998.66
2022-09-03T05:11:36.517Z,101003.75
2022-09-03T05:12:38.305Z,100998.34
2022-09-03T05:13:42.895Z,100997.31
2022-09-03T05:14:44.822Z,101005.09
2022-09-03T05:15:49.194Z,100997.84
2022-09-03T05:16:52.894Z,100999.59
2022-09-03T05:18:01.996Z,101010.84
2022-09-03T05:19:06.089Z,101005.09
2022-09-03T05:20:10.860Z,101006.84
2022-09-03T05:21:16.346Z,101004.00
2022-09-03T05:22:21.445Z,101009.50
2022-09-03T05:23:26.322Z,101008.22
2022-09-03T05:24:30.821Z,101007.06
2022-09-03T05:25:32.646Z,101011.38
2022-09-03T05:26:39.922Z,101023.44
2022-09-03T05:27:41.726Z,101023.34
2022-09-03T05:28:46.405Z,101022.94
2022-09-03T05:29:48.873Z,101013.84
2022-09-03T05:31:03.110Z,101023.41
2022-09-03T05:32:05.036Z,101015.22
2022-09-03T05:33:09.593Z,101016.94
2022-09-03T05:34:16.538Z,101026.69
2022-09-03T05:35:25.965Z,101028.00
2022-09-03T05:36:29.750Z,101029.47
2022-09-03T05:37:34.125Z,101024.75
2022-09-03T05:38:35.929Z,101027.84
2022-09-03T05:39:40.445Z,101024.25
2022-09-03T05:40:42.310Z,101026.47
2022-09-03T05:41:46.693Z,101031.66
2022-09-03T05:42:48.863Z,101033.91
2022-09-03T05:43:56.230Z,101027.44
2022-09-03T05:44:58.245Z,101024.44
2022-09-03T05:46:03.060Z,101037.53
2022-09-03T05:47:05.024Z,101033.66
2022-09-03T05:48:09.397Z,101034.09
2022-09-03T05:49:11.843Z,101030.28
2022-09-03T05:50:16.225Z,101033.91
2022-09-03T05:51:18.285Z,101028.97
2022-09-03T05:52:23.610Z,101038.56
2022-09-03T05:53:25.572Z,101030.97
2022-09-03T05:54:30.197Z,101027.09
2022-09-03T05:55:32.072Z,101035.53
2022-09-03T05:56:38.050Z,101032.53
2022-09-03T05:57:40.641Z,101025.06
2022-09-03T05:58:46.181Z,101029.38
2022-09-03T05:59:51.166Z,101034.34
2022-09-03T06:00:53.015Z,101035.72
2022-09-03T06:02:00.060Z,101037.06
2022-09-03T06:03:02.645Z,101038.63
2022-09-03T06:04:08.268Z,101042.72
2022-09-03T06:05:10.075Z,101048.78
2022-09-03T06:06:14.821Z,101042.13
2022-09-03T06:07:16.773Z,101038.28
2022-09-03T06:08:21.257Z,101033.53
2022-09-03T06:09:23.786Z,101044.78
2022-09-03T06:10:36.428Z,101044.44
2022-09-03T06:11:44.729Z,101048.25
2022-09-03T06:12:50.595Z,101053.25
2022-09-03T06:13:56.441Z,101048.56
2022-09-03T06:14:58.331Z,101044.34
2022-09-03T06:16:06.649Z,101046.56
2022-09-03T06:17:13.009Z,101053.41
2022-09-03T06:18:14.831Z,101049.41
2022-09-03T06:19:19.425Z,101050.97
2022-09-03T06:20:21.327Z,101049.25
2022-09-03T06:21:25.909Z,101057.84
2022-09-03T06:22:30.199Z,101053.72
2022-09-03T06:23:34.806Z,101049.81
2022-09-03T06:24:40.764Z,101050.47
2022-09-03T06:25:42.615Z,101049.00
2022-09-03T06:26:47.336Z,101057.41
2022-09-03T06:27:49.661Z,101057.22
2022-09-03T06:28:56.326Z,101055.84
2022-09-03T06:30:00.773Z,101061.97
2022-09-03T06:31:03.393Z,101057.72
2022-09-03T06:32:07.834Z,101069.78
2022-09-03T06:33:09.785Z,101063.91
2022-09-03T06:34:14.149Z,101060.84
2022-09-03T06:35:16.129Z,101073.72
2022-09-03T06:36:21.514Z,101066.00
2022-09-03T06:37:23.312Z,101071.09
2022-09-03T06:38:32.062Z,101070.03
2022-09-03T06:39:34.189Z,101071.31
2022-09-03T06:40:38.620Z,101069.09
2022-09-03T06:41:40.465Z,101069.72
2022-09-03T06:42:45.843Z,101070.22
2022-09-03T06:43:49.329Z,101073.97
2022-09-03T06:44:53.790Z,101071.75
2022-09-03T06:45:56.642Z,101075.50
2022-09-03T06:47:01.640Z,101074.00
2022-09-03T06:48:03.542Z,101074.56
2022-09-03T06:49:08.610Z,101071.31
2022-09-03T06:50:10.454Z,101068.34
2022-09-03T06:51:18.775Z,101074.97
2022-09-03T06:52:20.645Z,101080.16
2022-09-03T06:53:32.076Z,101081.63
2022-09-03T06:54:40.843Z,101072.59
2022-09-03T06:55:43.339Z,101070.88
2022-09-03T06:56:47.737Z,101071.09
2022-09-03T06:57:52.937Z,101072.38
2022-09-03T06:58:58.625Z,101069.88
2022-09-03T07:00:01.221Z,101074.72
2022-09-03T07:01:32.843Z,101078.78
2022-09-03T07:02:34.826Z,101082.44
2022-09-03T07:03:39.637Z,101083.94
2022-09-03T07:04:44.273Z,101080.66
2022-09-03T07:05:46.425Z,101076.56
2022-09-03T07:06:50.969Z,101075.13
2022-09-03T07:07:52.755Z,101078.22
2022-09-03T07:09:00.187Z,101068.72
2022-09-03T07:10:04.720Z,101078.16
2022-09-03T07:11:09.431Z,101070.59
2022-09-03T07:12:16.005Z,101072.69
2022-09-03T07:13:19.028Z,101077.41
2022-09-03T07:14:24.689Z,101082.09
2022-09-03T07:15:26.476Z,101083.56
2022-09-03T07:16:35.907Z,101087.75
2022-09-03T07:17:37.810Z,101081.75
2022-09-03T07:18:43.791Z,101079.81
2022-09-03T07:19:45.621Z,101092.47
2022-09-03T07:20:50.067Z,101094.81
2022-09-03T07:21:54.507Z,101088.13
2022-09-03T07:22:56.672Z,101092.28
2022-09-03T07:24:01.128Z,101099.03
2022-09-03T07:25:03.028Z,101090.56
2022-09-03T07:26:08.914Z,101088.38
2022-09-03T07:27:15.189Z,101088.88
2022-09-03T07:28:17.378Z,101088.16
2022-09-03T07:29:23.389Z,101096.47
2022-09-03T07:30:26.534Z,101099.41
2022-09-03T07:31:32.255Z,101090.84
2022-09-03T07:32:34.138Z,101100.16
2022-09-03T07:33:38.560Z,101107.78
2022-09-03T07:34:40.358Z,101107.25
2022-09-03T07:35:44.937Z,101106.78
2022-09-03T07:36:48.908Z,101098.69
2022-09-03T07:37:54.086Z,101108.97
2022-09-03T07:38:56.778Z,101097.94
2022-09-03T07:40:02.015Z,101106.53
2022-09-03T07:41:05.128Z,101103.72
2022-09-03T07:42:10.997Z,101096.06
2022-09-03T07:43:13.274Z,101101.84
2022-09-03T07:44:19.878Z,101108.44
2022-09-03T07:45:22.149Z,101100.81
2022-09-03T07:46:28.032Z,101094.91
2022-09-03T07:47:30.928Z,101101.53
2022-09-03T07:48:37.480Z,101100.72
2022-09-03T07:49:42.078Z,101103.19
2022-09-03T07:50:44.063Z,101103.63
2022-09-03T07:51:50.913Z,101099.69
2022-09-03T07:52:58.826Z,101101.13
2022-09-03T07:54:04.998Z,101093.75
2022-09-03T07:55:07.211Z,101097.81
2022-09-03T07:56:12.704Z,101100.38
2022-09-03T07:57:14.553Z,101097.16
2022-09-03T07:58:18.963Z,101097.91
2022-09-03T07:59:23.104Z,101109.06
2022-09-03T08:00:28.661Z,101102.38
2022-09-03T08:01:31.705Z,101105.69
2022-09-03T08:02:36.148Z,101110.09
2022-09-03T08:03:38.527Z,101103.41
2022-09-03T08:04:43.629Z,101106.84
2022-09-03T08:05:45.507Z,101100.69
2022-09-03T08:06:49.964Z,101098.66
2022-09-03T08:07:51.740Z,101108.38
2022-09-03T08:09:04.507Z,101100.72
2022-09-03T08:10:07.396Z,101096.44
2022-09-03T08:11:15.769Z,101102.75
2022-09-03T08:12:17.637Z,101092.25
2022-09-03T08:13:22.067Z,101098.53
2022-09-03T08:14:26.564Z,101098.22
2022-09-03T08:15:28.536Z,101094.41
2022-09-03T08:16:33.583Z,101111.97
2022-09-03T08:17:35.450Z,101110.81
2022-09-03T08:18:42.357Z,101099.47
2022-09-03T08:19:46.205Z,101096.63
2022-09-03T08:20:50.561Z,101105.81
2022-09-03T08:21:52.319Z,101098.13
2022-09-03T08:23:03.424Z,101095.56
2022-09-03T08:24:05.817Z,101100.88
2022-09-03T08:25:11.843Z,101097.91
2022-09-03T08:26:18.845Z,101102.44
2022-09-03T08:27:27.859Z,101094.63
2022-09-03T08:28:30.259Z,101107.88
2022-09-03T08:29:34.663Z,101111.03
2022-09-03T08:30:37.302Z,101109.03
2022-09-03T08:31:41.938Z,101098.91
2022-09-03T08:32:43.787Z,101101.09
2022-09-03T08:33:49.531Z,101097.22
2022-09-03T08:34:52.422Z,101094.97
2022-09-03T08:35:57.237Z,101100.81
2022-09-03T08:37:01.508Z,101092.97
2022-09-03T08:38:09.016Z,101090.00
2022-09-03T08:39:13.016Z,101083.84
2022-09-03T08:40:17.438Z,101089.41
2022-09-03T08:41:30.293Z,101093.44
2022-09-03T08:42:36.907Z,101089.16
2022-09-03T08:43:54.807Z,101093.16
2022-09-03T08:44:59.959Z,101088.59
2022-09-03T08:46:02.285Z,101089.00
2022-09-03T08:47:25.771Z,101086.59
2022-09-03T08:48:28.394Z,101088.47
2022-09-03T08:49:38.099Z,101082.03
2022-09-03T08:50:42.185Z,101088.59
2022-09-03T08:51:48.073Z,101086.44
2022-09-03T08:53:02.017Z,101084.84
2022-09-03T08:54:03.996Z,101082.97
2022-09-03T08:55:17.855Z,101084.41
2022-09-03T08:56:24.810Z,101076.69
2022-09-03T08:57:29.250Z,101077.09
2022-09-03T08:58:31.850Z,101076.81
2022-09-03T08:59:37.286Z,101078.53
2022-09-03T09:00:41.022Z,101073.66
2022-09-03T09:02:11.457Z,101067.66
2022-09-03T09:03:32.170Z,101069.06
2022-09-03T09:04:43.127Z,101067.06
2022-09-03T09:06:19.866Z,101075.63
2022-09-03T09:07:32.408Z,101074.19
2022-09-03T09:08:40.147Z,101070.78
2022-09-03T09:10:10.669Z,101072.34
2022-09-03T09:11:15.343Z,101073.63
2022-09-03T09:12:38.485Z,101073.03
2022-09-03T09:13:49.417Z,101075.34
2022-09-03T09:14:58.349Z,101076.56
2022-09-03T09:16:19.853Z,101070.56
2022-09-03T09:17:31.270Z,101069.09
2022-09-03T09:18:54.449Z,101070.50
2022-09-03T09:20:02.293Z,101065.50
2022-09-03T09:21:21.430Z,101072.03
2022-09-03T09:22:29.802Z,101062.44
2022-09-03T09:23:36.560Z,101068.25
2022-09-03T09:24:42.537Z,101062.53
2022-09-03T09:25:51.185Z,101072.22
2022-09-03T09:26:55.785Z,101067.66
2022-09-03T09:28:02.617Z,101068.50
2022-09-03T09:29:05.876Z,101074.31
2022-09-03T09:30:14.512Z,101068.53
2022-09-03T09:31:18.821Z,101065.81
2022-09-03T09:32:23.817Z,101069.66
2022-09-03T09:33:26.301Z,101075.88
2022-09-03T09:34:30.722Z,101073.88
2022-09-03T09:35:32.550Z,101068.44
2022-09-03T09:37:02.505Z,101072.16
2022-09-03T09:38:04.603Z,101070.91
2022-09-03T09:39:12.528Z,101065.66
2022-09-03T09:40:23.111Z,101074.81
2022-09-03T09:41:29.885Z,101068.03
2022-09-03T09:42:31.837Z,101075.59
2022-09-03T09:43:36.393Z,101064.25
2022-09-03T09:44:42.757Z,101072.03
2022-09-03T09:45:48.394Z,101073.59
2022-09-03T09:46:54.571Z,101075.28
2022-09-03T09:47:59.714Z,101068.94
2022-09-03T09:49:01.682Z,101070.34
2022-09-03T09:50:06.439Z,101068.03
2022-09-03T09:51:21.321Z,101061.44
2022-09-03T09:52:28.703Z,101061.44
2022-09-03T09:53:30.470Z,101066.03
2022-09-03T09:54:35.057Z,101073.38
2022-09-03T09:55:39.086Z,101071.53
2022-09-03T09:56:45.153Z,101073.97
2022-09-03T09:57:47.901Z,101066.09
2022-09-03T09:58:52.778Z,101070.66
2022-09-03T10:00:07.965Z,101070.34
2022-09-03T10:01:18.355Z,101060.03
2022-09-03T10:02:31.854Z,101050.88
2022-09-03T10:03:35.684Z,101056.06
2022-09-03T10:04:40.557Z,101057.06
2022-09-03T10:05:43.946Z,101062.28
2022-09-03T10:06:54.425Z,101061.34
2022-09-03T10:07:59.517Z,101064.78
2022-09-03T10:09:11.988Z,101077.97
2022-09-03T10:10:16.379Z,101064.69
2022-09-03T10:11:20.676Z,101073.88
2022-09-03T10:12:27.191Z,101072.91
2022-09-03T10:13:36.236Z,101070.03
2022-09-03T10:14:41.293Z,101062.19
2022-09-03T10:15:51.311Z,101066.63
2022-09-03T10:17:00.226Z,101048.44
2022-09-03T10:18:05.202Z,101060.47
2022-09-03T10:19:14.187Z,101069.19
2022-09-03T10:20:30.882Z,101059.19
2022-09-03T10:21:50.405Z,101033.88
2022-09-03T10:22:57.545Z,101057.50
2022-09-03T10:24:20.625Z,101052.88
2022-09-03T10:25:24.449Z,101052.81
2022-09-03T10:26:32.072Z,101048.06
2022-09-03T10:27:34.374Z,101035.88
2022-09-03T10:28:43.947Z,101046.75
2022-09-03T10:29:45.888Z,101034.78
2022-09-03T10:30:56.635Z,101046.75
2022-09-03T10:32:07.473Z,101036.94
2022-09-03T10:33:12.840Z,101040.63
2022-09-03T10:34:17.538Z,101038.13
2022-09-03T10:35:19.403Z,101035.09
2022-09-03T10:36:28.178Z,101036.66
2022-09-03T10:37:32.524Z,101040.72
2022-09-03T10:38:34.687Z,101038.00
2022-09-03T10:39:43.272Z,101032.91
2022-09-03T10:40:50.978Z,101036.44
2022-09-03T10:42:14.017Z,101031.00
2022-09-03T10:43:18.834Z,101025.16
2022-09-03T10:44:29.879Z,101028.34
2022-09-03T10:45:53.109Z,101034.63
2022-09-03T10:47:07.666Z,101027.22
2022-09-03T10:48:47.320Z,101025.56
2022-09-03T10:49:54.711Z,101035.09
2022-09-03T10:50:57.658Z,101025.81
2022-09-03T10:52:05.195Z,101027.13
2022-09-03T10:53:09.363Z,101022.63
2022-09-03T10:54:24.365Z,101021.34
2022-09-03T10:55:47.810Z,101015.56
2022-09-03T10:56:52.392Z,101028.28
2022-09-03T10:58:04.826Z,101021.66
2022-09-03T10:59:21.090Z,101025.41
2022-09-03T11:00:26.250Z,101017.00
2022-09-03T11:01:38.286Z,101012.97
2022-09-03T11:02:45.942Z,101016.03
2022-09-03T11:04:02.371Z,101007.88
2022-09-03T11:05:08.138Z,101014.84
2022-09-03T11:06:14.537Z,101006.84
2022-09-03T11:07:18.221Z,100999.00
2022-09-03T11:08:30.853Z,101012.69
2022-09-03T11:09:42.698Z,101000.94
2022-09-03T11:10:45.583Z,101010.47
2022-09-03T11:11:54.814Z,101006.34
2022-09-03T11:13:13.200Z,101014.13
2022-09-03T11:14:21.027Z,101009.34
2022-09-03T11:15:27.928Z,101001.72
2022-09-03T11:16:34.452Z,101010.88
2022-09-03T11:17:40.484Z,100996.59
2022-09-03T11:18:44.828Z,101002.38
2022-09-03T11:19:49.329Z,101009.13
2022-09-03T11:20:54.981Z,100991.19
2022-09-03T11:21:56.875Z,101005.13
2022-09-03T11:23:03.108Z,101001.41
2022-09-03T11:24:15.150Z,100990.38
2022-09-03T11:25:20.245Z,100993.09
2022-09-03T11:26:23.358Z,100998.38
2022-09-03T11:27:27.933Z,100995.66
2022-09-03T11:28:38.114Z,100999.50
2022-09-03T11:29:52.052Z,100999.25
2022-09-03T11:30:57.427Z,100994.81
2022-09-03T11:32:04.017Z,100996.63
2022-09-03T11:33:07.468Z,100994.56
2022-09-03T11:34:23.395Z,100982.31
2022-09-03T11:35:36.761Z,100985.41
2022-09-03T11:36:38.860Z,100988.28
2022-09-03T11:38:02.103Z,100982.19
2022-09-03T11:39:25.367Z,100991.22
2022-09-03T11:40:40.474Z,100989.50
2022-09-03T11:41:42.329Z,100980.50
2022-09-03T11:42:47.222Z,100996.28
2022-09-03T11:43:49.487Z,100992.53
2022-09-03T11:44:54.464Z,100994.38
2022-09-03T11:46:12.914Z,100996.28
2022-09-03T11:47:38.104Z,100993.47
2022-09-03T11:48:46.655Z,100995.84
2022-09-03T11:49:54.184Z,100994.03
2022-09-03T11:50:59.058Z,100979.06
2022-09-03T11:52:10.073Z,100977.69
2022-09-03T11:53:24.492Z,100980.75
2022-09-03T11:54:29.412Z,100979.72
2022-09-03T11:55:38.261Z,100968.50
2022-09-03T11:56:50.620Z,100971.59
2022-09-03T11:57:52.918Z,100980.97
2022-09-03T11:59:09.345Z,100975.13
2022-09-03T12:00:13.771Z,100971.25
2022-09-03T12:01:19.224Z,100982.59
2022-09-03T12:02:29.902Z,100975.31
2022-09-03T12:03:45.370Z,100971.25
2022-09-03T12:04:52.981Z,100977.06
2022-09-03T12:06:12.028Z,100965.84
2022-09-03T12:07:34.965Z,100966.53
2022-09-03T12:09:11.952Z,100965.78
2022-09-03T12:10:13.833Z,100961.00
2022-09-03T12:11:56.630Z,100960.38
2022-09-03T12:13:10.247Z,100960.66
2022-09-03T12:14:23.263Z,100953.84
2022-09-03T12:15:50.253Z,100963.09
2022-09-03T12:17:06.865Z,100947.75
2022-09-03T12:18:21.668Z,100951.44
2022-09-03T12:19:31.613Z,100948.22
2022-09-03T12:20:33.462Z,100951.81
2022-09-03T12:21:41.958Z,100944.03
2022-09-03T12:22:46.366Z,100935.16
2022-09-03T12:23:55.600Z,100941.66
2022-09-03T12:25:11.993Z,100947.78
2022-09-03T12:26:23.928Z,100943.41
2022-09-03T12:27:26.765Z,100932.50
2022-09-03T12:28:33.349Z,100942.31
2022-09-03T12:29:35.213Z,100935.88
2022-09-03T12:30:40.120Z,100937.44
2022-09-03T12:31:45.253Z,100925.03
2022-09-03T12:32:51.441Z,100930.16
2022-09-03T12:33:54.514Z,100939.69
2022-09-03T12:34:58.949Z,100932.19
2022-09-03T12:36:01.327Z,100934.91
2022-09-03T12:37:06.510Z,100934.91
2022-09-03T12:38:09.958Z,100932.84
2022-09-03T12:39:17.430Z,100931.13
2022-09-03T12:40:21.584Z,100929.09
2022-09-03T12:41:27.871Z,100927.06
2022-09-03T12:42:33.168Z,100927.06
2022-09-03T12:43:49.914Z,100923.66